CLX296 EDDP-EDDH
Flight info
| Callsign | CLX296 |
|---|---|
| Flight time | N/A |
| Altitude | 28000 |
| Route | PENEM1X PENEM Y233 ODLUN Z207 MAG M736 SOGMA M748 RARUP RARUP6A |
| Aircraft | B77L/H-SDE1E2E3FGHIJ2J3J4J5M1RWXY/LB1D1 |
Departure
| Time | 2026-05-07 20:43 |
|---|---|
| Airport | Leipzig/Halle Airport (EDDP) |
Arrival
| Time | N/A |
|---|---|
| Airport | Hamburg Helmut Schmidt Airport (EDDH) |
| Time | Latitude | Longitude | Altitude | Speed | Heading |
|---|---|---|---|---|---|
| 2026-05-07 20:16 | 51.40876 | 12.23090 | 471 ft | 0 kts | 265° |
| 2026-05-07 20:25 | 51.40878 | 12.23121 | 469 ft | 4 kts | 266° |
| 2026-05-07 20:26 | 51.40880 | 12.23159 | 466 ft | 4 kts | 273° |
| 2026-05-07 20:26 | 51.40872 | 12.23192 | 465 ft | 4 kts | 334° |
| 2026-05-07 20:26 | 51.40847 | 12.23200 | 465 ft | 4 kts | 357° |
| 2026-05-07 20:26 | 51.40837 | 12.23201 | 467 ft | 1 kts | 355° |
| 2026-05-07 20:37 | 51.40857 | 12.23199 | 464 ft | 7 kts | 356° |
| 2026-05-07 20:37 | 51.40911 | 12.23197 | 469 ft | 8 kts | 359° |
| 2026-05-07 20:37 | 51.40965 | 12.23188 | 470 ft | 8 kts | 351° |
| 2026-05-07 20:38 | 51.41015 | 12.23161 | 467 ft | 8 kts | 319° |
| 2026-05-07 20:38 | 51.41023 | 12.23067 | 470 ft | 10 kts | 266° |
| 2026-05-07 20:38 | 51.41018 | 12.22931 | 468 ft | 14 kts | 265° |
| 2026-05-07 20:38 | 51.41010 | 12.22774 | 467 ft | 14 kts | 265° |
| 2026-05-07 20:39 | 51.41002 | 12.22613 | 465 ft | 16 kts | 265° |
| 2026-05-07 20:39 | 51.40993 | 12.22426 | 462 ft | 17 kts | 268° |
| 2026-05-07 20:39 | 51.41058 | 12.22275 | 461 ft | 17 kts | 307° |
| 2026-05-07 20:39 | 51.41064 | 12.22083 | 461 ft | 18 kts | 266° |
| 2026-05-07 20:40 | 51.41055 | 12.21888 | 461 ft | 18 kts | 266° |
| 2026-05-07 20:40 | 51.41047 | 12.21693 | 463 ft | 18 kts | 266° |
| 2026-05-07 20:40 | 51.41037 | 12.21486 | 458 ft | 20 kts | 265° |
| 2026-05-07 20:40 | 51.41025 | 12.21258 | 455 ft | 21 kts | 265° |
| 2026-05-07 20:41 | 51.41013 | 12.21013 | 446 ft | 24 kts | 265° |
| 2026-05-07 20:41 | 51.41004 | 12.20781 | 433 ft | 20 kts | 266° |
| 2026-05-07 20:41 | 51.40995 | 12.20566 | 433 ft | 17 kts | 273° |
| 2026-05-07 20:41 | 51.41051 | 12.20489 | 430 ft | 11 kts | 2° |
| 2026-05-07 20:42 | 51.41122 | 12.20514 | 438 ft | 11 kts | 15° |
| 2026-05-07 20:42 | 51.41166 | 12.20590 | 430 ft | 9 kts | 82° |
| 2026-05-07 20:42 | 51.41170 | 12.20680 | 433 ft | 2 kts | 85° |
| 2026-05-07 20:42 | 51.41171 | 12.20690 | 433 ft | 6 kts | 85° |
| 2026-05-07 20:43 | 51.41191 | 12.21132 | 450 ft | 79 kts | 86° |
| 2026-05-07 20:43 | 51.41250 | 12.22387 | 461 ft | 145 kts | 85° |
| 2026-05-07 20:43 | 51.41326 | 12.24208 | 731 ft | 171 kts | 86° |
| 2026-05-07 20:43 | 51.41400 | 12.26113 | 1431 ft | 173 kts | 84° |
| 2026-05-07 20:44 | 51.41498 | 12.28018 | 2224 ft | 171 kts | 82° |
| 2026-05-07 20:44 | 51.41962 | 12.29797 | 2734 ft | 188 kts | 43° |
| 2026-05-07 20:44 | 51.43252 | 12.30621 | 3028 ft | 223 kts | 360° |
| 2026-05-07 20:44 | 51.44829 | 12.29858 | 3477 ft | 250 kts | 334° |
| 2026-05-07 20:45 | 51.46392 | 12.28511 | 4397 ft | 259 kts | 334° |
| 2026-05-07 20:45 | 51.48000 | 12.27161 | 5485 ft | 263 kts | 334° |
| 2026-05-07 20:45 | 51.49644 | 12.25800 | 6565 ft | 268 kts | 334° |
| 2026-05-07 20:45 | 51.51304 | 12.24443 | 7962 ft | 272 kts | 334° |
| 2026-05-07 20:46 | 51.53013 | 12.23060 | 9451 ft | 278 kts | 335° |
| 2026-05-07 20:46 | 51.54767 | 12.21652 | 10833 ft | 286 kts | 335° |
| 2026-05-07 20:46 | 51.56613 | 12.20180 | 11795 ft | 310 kts | 335° |
| 2026-05-07 20:46 | 51.58653 | 12.18558 | 12316 ft | 346 kts | 335° |
| 2026-05-07 20:47 | 51.60913 | 12.16760 | 12872 ft | 374 kts | 335° |
| 2026-05-07 20:47 | 51.63278 | 12.14876 | 14014 ft | 382 kts | 334° |
| 2026-05-07 20:47 | 51.65675 | 12.12967 | 15176 ft | 387 kts | 334° |
| 2026-05-07 20:47 | 51.68110 | 12.11007 | 16263 ft | 395 kts | 332° |
| 2026-05-07 20:48 | 51.70452 | 12.08637 | 17341 ft | 402 kts | 324° |
| 2026-05-07 20:48 | 51.72630 | 12.05760 | 18427 ft | 407 kts | 317° |
| 2026-05-07 20:48 | 51.74600 | 12.02454 | 19335 ft | 411 kts | 311° |
| 2026-05-07 20:48 | 51.76511 | 11.98983 | 20217 ft | 416 kts | 311° |
| 2026-05-07 20:49 | 51.78448 | 11.95472 | 21070 ft | 421 kts | 311° |
| 2026-05-07 20:49 | 51.80419 | 11.91946 | 21890 ft | 425 kts | 312° |
| 2026-05-07 20:49 | 51.81664 | 11.89733 | 22395 ft | 428 kts | 312° |